createdAt,value
2023-01-18T00:02:55.398Z,90.21
2023-01-18T00:06:01.627Z,90.35
2023-01-18T00:09:04.021Z,90.33
2023-01-18T00:12:06.831Z,90.01
2023-01-18T00:15:10.039Z,89.85
2023-01-18T00:18:12.746Z,89.93
2023-01-18T00:21:15.104Z,89.24
2023-01-18T00:24:17.705Z,89.39
2023-01-18T00:27:21.207Z,89.71
2023-01-18T00:30:28.388Z,90.13
2023-01-18T00:33:30.728Z,89.96
2023-01-18T00:36:34.192Z,90.14
2023-01-18T00:39:36.510Z,90.23
2023-01-18T00:42:58.378Z,90.23
2023-01-18T00:46:01.166Z,90.04
2023-01-18T00:49:04.255Z,90.13
2023-01-18T00:52:06.631Z,90.09
2023-01-18T00:55:09.632Z,90.03
2023-01-18T00:58:12.007Z,89.79
2023-01-18T01:01:15.221Z,89.41
2023-01-18T01:04:36.405Z,89.19
2023-01-18T01:07:39.014Z,89.26
2023-01-18T01:10:41.390Z,89.73
2023-01-18T01:14:02.253Z,89.45
2023-01-18T01:17:23.203Z,89.21
2023-01-18T01:20:45.399Z,89.39
2023-01-18T01:24:06.632Z,89.73
2023-01-18T01:27:11.455Z,89.83
2023-01-18T01:30:13.858Z,89.69
2023-01-18T01:33:18.069Z,89.88
2023-01-18T01:36:27.659Z,90.11
2023-01-18T01:39:30.568Z,90.38
2023-01-18T01:42:32.907Z,90.50
2023-01-18T01:45:35.833Z,90.64
2023-01-18T01:48:38.183Z,90.30
2023-01-18T01:51:44.233Z,90.39
2023-01-18T01:55:13.813Z,90.23
2023-01-18T01:58:27.560Z,90.07
2023-01-18T02:01:30.406Z,90.29
2023-01-18T02:04:34.141Z,90.21
2023-01-18T02:07:36.773Z,90.27
2023-01-18T02:10:39.720Z,90.12
2023-01-18T02:13:42.174Z,90.41
2023-01-18T02:16:47.394Z,90.30
2023-01-18T02:19:55.593Z,91.60
2023-01-18T02:23:24.428Z,91.93
2023-01-18T02:26:41.834Z,92.11
2023-01-18T02:29:49.109Z,92.52
2023-01-18T02:32:57.332Z,92.39
2023-01-18T02:36:01.310Z,92.45
2023-01-18T02:39:31.830Z,92.59
2023-01-18T02:42:57.241Z,92.49
2023-01-18T02:46:20.020Z,92.36
2023-01-18T02:49:27.282Z,92.35
2023-01-18T02:52:47.673Z,92.56
2023-01-18T02:56:02.135Z,92.49
2023-01-18T02:59:12.108Z,92.64
2023-01-18T03:02:21.183Z,92.52
2023-01-18T03:05:26.212Z,92.65
2023-01-18T03:08:43.360Z,92.50
2023-01-18T03:12:01.190Z,92.72
2023-01-18T03:15:13.094Z,92.69
2023-01-18T03:18:27.822Z,92.65
2023-01-18T03:21:51.533Z,92.64
2023-01-18T03:24:53.885Z,92.60
2023-01-18T03:28:18.728Z,92.62
2023-01-18T03:32:07.230Z,92.51
2023-01-18T03:35:15.420Z,92.52
2023-01-18T03:38:18.755Z,92.46
2023-01-18T03:41:24.752Z,92.59
2023-01-18T03:44:51.157Z,92.70
2023-01-18T03:47:53.921Z,92.62
2023-01-18T03:51:23.261Z,92.45
2023-01-18T03:54:42.188Z,92.24
2023-01-18T03:57:52.509Z,92.02
2023-01-18T04:00:55.307Z,91.94
2023-01-18T04:03:58.029Z,91.89
2023-01-18T04:07:00.606Z,91.84
2023-01-18T04:10:03.818Z,92.10
2023-01-18T04:13:06.178Z,92.08
2023-01-18T04:16:09.192Z,92.06
2023-01-18T04:19:11.649Z,92.36
2023-01-18T04:22:14.665Z,92.46
2023-01-18T04:25:17.078Z,92.66
2023-01-18T04:28:25.408Z,92.78
2023-01-18T04:31:27.909Z,93.30
2023-01-18T04:34:30.589Z,93.20
2023-01-18T04:37:34.214Z,93.27
2023-01-18T04:40:37.003Z,93.32
2023-01-18T04:43:39.295Z,93.43
2023-01-18T04:46:41.993Z,93.60
2023-01-18T04:49:44.510Z,93.76
2023-01-18T04:52:47.415Z,94.08
2023-01-18T04:55:50.051Z,94.26
2023-01-18T04:58:54.388Z,94.36
2023-01-18T05:01:56.882Z,94.35
2023-01-18T05:05:00.149Z,94.32
2023-01-18T05:08:03.059Z,94.35
2023-01-18T05:11:09.520Z,94.61
2023-01-18T05:14:11.820Z,94.66
2023-01-18T05:17:14.483Z,94.72
2023-01-18T05:20:16.851Z,94.85
2023-01-18T05:23:20.267Z,94.82
2023-01-18T05:26:24.338Z,94.42
2023-01-18T05:29:26.979Z,94.31
2023-01-18T05:32:29.337Z,94.12
2023-01-18T05:35:32.509Z,93.93
2023-01-18T05:38:34.944Z,92.62
2023-01-18T05:41:37.521Z,92.31
2023-01-18T05:44:40.911Z,92.66
2023-01-18T05:47:43.797Z,90.79
2023-01-18T05:50:47.537Z,90.39
2023-01-18T05:53:50.286Z,89.31
2023-01-18T05:56:52.617Z,88.70
2023-01-18T05:59:55.196Z,88.91
2023-01-18T06:02:57.980Z,88.04
2023-01-18T06:06:01.733Z,88.01
2023-01-18T06:09:06.585Z,88.30
2023-01-18T06:12:10.327Z,89.65
2023-01-18T06:15:15.073Z,89.40
2023-01-18T06:18:17.724Z,89.07
2023-01-18T06:21:20.116Z,88.90
2023-01-18T06:24:22.772Z,88.58
2023-01-18T06:27:25.081Z,89.34
2023-01-18T06:30:27.659Z,89.62
2023-01-18T06:33:30.104Z,88.88
2023-01-18T06:36:33.051Z,88.55
2023-01-18T06:39:35.872Z,88.92
2023-01-18T06:42:40.036Z,89.00
2023-01-18T06:45:42.458Z,88.92
2023-01-18T06:48:45.262Z,89.44
2023-01-18T06:51:47.590Z,89.42
2023-01-18T06:54:50.274Z,90.42
2023-01-18T06:57:52.601Z,89.10
2023-01-18T07:00:56.398Z,90.54
2023-01-18T07:03:58.904Z,90.55
2023-01-18T07:07:01.937Z,89.86
2023-01-18T07:10:04.680Z,89.35
2023-01-18T07:13:07.324Z,89.62
2023-01-18T07:16:18.108Z,89.67
2023-01-18T07:19:20.823Z,89.92
2023-01-18T07:22:23.520Z,90.02
2023-01-18T07:25:27.589Z,89.90
2023-01-18T07:28:30.807Z,89.63
2023-01-18T07:31:33.478Z,89.82
2023-01-18T07:34:35.834Z,89.67
2023-01-18T07:37:38.712Z,89.32
2023-01-18T07:40:41.171Z,87.93
2023-01-18T07:43:44.923Z,87.57
2023-01-18T07:46:47.411Z,85.96
2023-01-18T07:49:50.079Z,86.51
2023-01-18T07:52:52.533Z,86.45
2023-01-18T07:55:59.774Z,85.29
2023-01-18T07:59:02.101Z,85.65
2023-01-18T08:02:04.707Z,85.02
2023-01-18T08:05:10.066Z,84.81
2023-01-18T08:08:15.048Z,85.20
2023-01-18T08:11:19.289Z,83.48
2023-01-18T08:14:21.719Z,84.35
2023-01-18T08:17:24.441Z,83.57
2023-01-18T08:20:26.779Z,83.08
2023-01-18T08:23:29.784Z,83.91
2023-01-18T08:26:32.241Z,83.29
2023-01-18T08:29:34.862Z,83.17
2023-01-18T08:32:37.199Z,83.60
2023-01-18T08:35:42.989Z,83.52
2023-01-18T08:38:57.222Z,83.36
2023-01-18T08:41:59.826Z,83.66
2023-01-18T08:45:02.142Z,83.29
2023-01-18T08:48:10.836Z,82.55
2023-01-18T08:51:13.275Z,82.53
2023-01-18T08:54:15.914Z,82.37
2023-01-18T08:57:18.335Z,82.88
2023-01-18T09:00:23.878Z,81.65
2023-01-18T09:03:27.183Z,82.87
2023-01-18T09:06:32.218Z,82.77
2023-01-18T09:09:34.722Z,83.37
2023-01-18T09:12:37.355Z,82.93
2023-01-18T09:15:39.803Z,82.58
2023-01-18T09:18:42.733Z,82.96
2023-01-18T09:21:46.672Z,83.11
2023-01-18T09:24:49.286Z,83.08
2023-01-18T09:27:52.492Z,81.30
2023-01-18T09:30:55.820Z,81.71
2023-01-18T09:34:09.583Z,82.38
2023-01-18T09:37:20.863Z,82.04
2023-01-18T09:40:30.774Z,82.73
2023-01-18T09:43:42.736Z,83.18
2023-01-18T09:46:45.846Z,82.89
2023-01-18T09:50:17.757Z,83.04
2023-01-18T09:53:45.659Z,83.13
2023-01-18T09:57:05.085Z,82.95
2023-01-18T10:00:22.380Z,82.74
2023-01-18T10:03:33.439Z,83.10
2023-01-18T10:06:46.306Z,82.74
2023-01-18T10:09:53.701Z,82.92
2023-01-18T10:13:16.595Z,82.48
2023-01-18T10:16:20.297Z,82.30
2023-01-18T10:19:27.468Z,82.72
2023-01-18T10:23:04.891Z,82.21
2023-01-18T10:26:20.452Z,83.02
2023-01-18T10:29:39.168Z,83.18
2023-01-18T10:32:52.208Z,82.72
2023-01-18T10:36:04.820Z,82.14
2023-01-18T10:39:25.259Z,81.87
2023-01-18T10:42:48.834Z,80.67
2023-01-18T10:45:53.431Z,80.71
2023-01-18T10:48:59.278Z,80.97
2023-01-18T10:52:36.964Z,80.28
2023-01-18T10:55:40.167Z,80.07
2023-01-18T10:58:51.405Z,80.38
2023-01-18T11:01:56.873Z,80.21
2023-01-18T11:05:21.473Z,79.79
2023-01-18T11:08:31.750Z,78.97
2023-01-18T11:11:52.881Z,76.79
2023-01-18T11:14:55.592Z,76.62
2023-01-18T11:17:58.114Z,76.43
2023-01-18T11:21:01.218Z,76.14
2023-01-18T11:24:18.913Z,76.37
2023-01-18T11:27:24.957Z,75.36
2023-01-18T11:30:27.408Z,75.71
2023-01-18T11:33:31.034Z,75.62
2023-01-18T11:36:45.271Z,75.93
2023-01-18T11:39:47.940Z,76.14
2023-01-18T11:42:53.255Z,75.10
2023-01-18T11:46:01.661Z,74.32
2023-01-18T11:49:09.212Z,74.24
2023-01-18T11:52:36.903Z,74.64
2023-01-18T11:55:56.120Z,74.67
2023-01-18T11:59:01.833Z,73.21
2023-01-18T12:02:31.599Z,71.88
2023-01-18T12:05:50.427Z,72.05
2023-01-18T12:09:10.643Z,71.17
2023-01-18T12:12:43.919Z,70.27
2023-01-18T12:15:48.948Z,69.84
2023-01-18T12:19:15.103Z,69.90
2023-01-18T12:22:24.111Z,70.58
2023-01-18T12:26:10.959Z,69.63
2023-01-18T12:29:36.493Z,70.23
2023-01-18T12:32:51.934Z,69.95
2023-01-18T12:36:01.646Z,69.92
2023-01-18T12:39:22.360Z,69.92
2023-01-18T12:42:33.807Z,70.08
2023-01-18T12:45:40.464Z,69.72
2023-01-18T12:48:48.573Z,69.17
2023-01-18T12:52:06.215Z,69.09
2023-01-18T12:55:23.544Z,69.68
2023-01-18T12:58:27.513Z,69.48
2023-01-18T13:01:36.420Z,68.87
2023-01-18T13:05:23.851Z,69.18
2023-01-18T13:08:42.639Z,69.16
2023-01-18T13:11:46.956Z,68.91
2023-01-18T13:15:01.842Z,70.28
2023-01-18T13:18:19.382Z,70.21
2023-01-18T13:21:31.263Z,70.26
2023-01-18T13:24:48.831Z,69.16
2023-01-18T13:28:03.375Z,69.43
2023-01-18T13:31:06.482Z,69.08
2023-01-18T13:34:47.968Z,69.81
2023-01-18T13:37:56.079Z,70.06
2023-01-18T13:41:03.928Z,71.02
2023-01-18T13:44:32.440Z,70.94
2023-01-18T13:47:39.496Z,71.24
2023-01-18T13:50:45.261Z,71.49
2023-01-18T13:53:50.055Z,72.75
2023-01-18T13:57:01.669Z,73.20
2023-01-18T14:00:05.798Z,73.49
2023-01-18T14:03:22.653Z,73.72
2023-01-18T14:06:30.755Z,74.57
2023-01-18T14:09:35.996Z,74.68
2023-01-18T14:12:50.021Z,75.20
2023-01-18T14:15:53.900Z,75.25
2023-01-18T14:19:15.790Z,75.44
2023-01-18T14:22:25.550Z,74.99
2023-01-18T14:26:05.519Z,75.02
2023-01-18T14:29:25.443Z,74.60
2023-01-18T14:32:33.415Z,74.60
2023-01-18T14:35:36.149Z,74.35
2023-01-18T14:38:41.151Z,74.95
2023-01-18T14:41:58.784Z,75.17
2023-01-18T14:45:06.829Z,75.05
2023-01-18T14:48:14.465Z,75.31
2023-01-18T14:51:20.525Z,75.28
2023-01-18T14:54:25.699Z,75.34
2023-01-18T14:57:28.217Z,75.41
2023-01-18T15:00:31.266Z,75.74
2023-01-18T15:03:33.646Z,75.80
2023-01-18T15:06:45.280Z,75.72
2023-01-18T15:09:48.332Z,76.16
2023-01-18T15:12:57.062Z,76.55
2023-01-18T15:16:02.265Z,76.88
2023-01-18T15:19:05.437Z,77.00
2023-01-18T15:22:12.768Z,76.96
2023-01-18T15:25:26.520Z,77.18
2023-01-18T15:28:34.176Z,77.05
2023-01-18T15:31:48.916Z,77.14
2023-01-18T15:34:53.211Z,77.38
2023-01-18T15:37:56.588Z,77.70
2023-01-18T15:41:07.305Z,78.10
2023-01-18T15:44:51.944Z,78.23
2023-01-18T15:48:00.934Z,78.57
2023-01-18T15:51:09.231Z,78.57
2023-01-18T15:54:21.453Z,78.66
2023-01-18T15:57:24.483Z,78.74
2023-01-18T16:00:30.140Z,78.51
2023-01-18T16:03:40.349Z,78.80
2023-01-18T16:06:45.658Z,78.64
2023-01-18T16:09:48.439Z,78.57
2023-01-18T16:12:52.260Z,78.71
2023-01-18T16:16:16.131Z,78.88
2023-01-18T16:19:34.714Z,79.28
2023-01-18T16:22:37.848Z,79.16
2023-01-18T16:25:40.284Z,79.02
2023-01-18T16:28:44.171Z,78.62
2023-01-18T16:31:48.445Z,78.69
2023-01-18T16:34:53.293Z,78.79
2023-01-18T16:37:57.849Z,78.94
2023-01-18T16:41:00.691Z,79.59
2023-01-18T16:44:06.484Z,80.94
2023-01-18T16:47:17.564Z,81.50
2023-01-18T16:50:21.030Z,80.88
2023-01-18T16:53:23.756Z,81.17
2023-01-18T16:56:26.131Z,81.81
2023-01-18T16:59:28.805Z,81.96
2023-01-18T17:02:31.385Z,82.22
2023-01-18T17:05:34.336Z,82.86
2023-01-18T17:08:36.905Z,82.46
2023-01-18T17:11:39.610Z,82.76
2023-01-18T17:14:41.998Z,82.66
2023-01-18T17:17:44.868Z,82.38
2023-01-18T17:20:47.540Z,82.22
2023-01-18T17:23:50.277Z,81.88
2023-01-18T17:26:52.728Z,82.03
2023-01-18T17:29:55.528Z,82.42
2023-01-18T17:32:58.164Z,82.22
2023-01-18T17:36:00.971Z,82.67
2023-01-18T17:39:03.506Z,82.50
2023-01-18T17:42:06.273Z,82.42
2023-01-18T17:45:14.420Z,82.80
2023-01-18T17:48:17.419Z,83.53
2023-01-18T17:51:21.046Z,83.53
2023-01-18T17:54:23.782Z,83.20
2023-01-18T17:57:26.224Z,83.50
2023-01-18T18:00:29.058Z,84.06
2023-01-18T18:03:32.303Z,84.46
2023-01-18T18:06:36.335Z,85.53
2023-01-18T18:09:40.833Z,85.66
2023-01-18T18:12:43.548Z,86.04
2023-01-18T18:15:49.229Z,86.09
2023-01-18T18:18:51.781Z,85.90
2023-01-18T18:21:54.587Z,86.64
2023-01-18T18:24:57.113Z,85.78
2023-01-18T18:27:59.769Z,85.65
2023-01-18T18:31:02.295Z,84.68
2023-01-18T18:34:05.586Z,85.34
2023-01-18T18:37:08.330Z,85.06
2023-01-18T18:40:11.533Z,85.23
2023-01-18T18:43:13.951Z,86.11
2023-01-18T18:46:16.875Z,86.52
2023-01-18T18:49:19.268Z,86.96
2023-01-18T18:52:22.036Z,86.79
2023-01-18T18:55:24.861Z,86.86
2023-01-18T18:58:27.930Z,87.22
2023-01-18T19:01:30.404Z,87.38
2023-01-18T19:04:34.095Z,88.27
2023-01-18T19:07:37.428Z,88.07
2023-01-18T19:10:40.005Z,88.29
2023-01-18T19:13:44.319Z,88.48
2023-01-18T19:16:46.970Z,88.44
2023-01-18T19:19:49.290Z,88.41
2023-01-18T19:22:52.254Z,88.60
2023-01-18T19:25:54.655Z,88.47
2023-01-18T19:28:57.316Z,88.22
2023-01-18T19:31:59.719Z,88.44
2023-01-18T19:35:02.800Z,88.86
2023-01-18T19:38:05.711Z,89.30
2023-01-18T19:41:09.404Z,89.63
2023-01-18T19:44:13.447Z,90.23
2023-01-18T19:47:16.249Z,90.33
2023-01-18T19:50:18.707Z,90.52
2023-01-18T19:53:21.800Z,90.49
2023-01-18T19:56:25.730Z,90.59
2023-01-18T19:59:28.559Z,91.19
2023-01-18T20:02:30.976Z,91.10
2023-01-18T20:05:33.706Z,91.55
2023-01-18T20:08:36.244Z,91.60
2023-01-18T20:11:38.851Z,91.69
2023-01-18T20:14:45.299Z,91.42
2023-01-18T20:17:48.020Z,91.71
2023-01-18T20:20:50.951Z,91.45
2023-01-18T20:23:56.022Z,91.83
2023-01-18T20:27:14.956Z,91.72
2023-01-18T20:30:18.799Z,91.70
2023-01-18T20:33:21.786Z,92.05
2023-01-18T20:36:24.444Z,92.17
2023-01-18T20:39:26.769Z,92.42
2023-01-18T20:42:29.416Z,92.56
2023-01-18T20:45:32.343Z,92.09
2023-01-18T20:48:37.822Z,91.85
2023-01-18T20:51:41.013Z,91.98
2023-01-18T20:54:43.729Z,91.82
2023-01-18T20:57:46.854Z,92.51
2023-01-18T21:00:50.345Z,92.97
2023-01-18T21:03:54.579Z,93.50
2023-01-18T21:06:57.907Z,93.50
2023-01-18T21:10:00.304Z,93.01
2023-01-18T21:13:02.888Z,93.40
2023-01-18T21:16:05.619Z,93.41
2023-01-18T21:19:10.195Z,93.28
2023-01-18T21:22:13.408Z,93.05
2023-01-18T21:25:16.184Z,93.08
2023-01-18T21:28:19.246Z,93.13
2023-01-18T21:31:22.445Z,93.39
2023-01-18T21:34:24.812Z,93.71
2023-01-18T21:37:27.849Z,93.78
2023-01-18T21:40:30.615Z,93.91
2023-01-18T21:43:52.135Z,94.22
2023-01-18T21:46:54.532Z,94.21
2023-01-18T21:50:17.793Z,93.55
2023-01-18T21:53:39.529Z,93.30
2023-01-18T21:56:44.332Z,93.79
2023-01-18T21:59:47.375Z,93.95
2023-01-18T22:02:50.121Z,94.10
2023-01-18T22:05:52.768Z,93.97
2023-01-18T22:08:55.141Z,93.56
2023-01-18T22:11:58.532Z,93.54
2023-01-18T22:15:02.088Z,93.69
2023-01-18T22:18:05.495Z,93.68
2023-01-18T22:21:07.938Z,93.77
2023-01-18T22:24:12.236Z,93.41
2023-01-18T22:27:14.602Z,93.33
2023-01-18T22:30:17.600Z,93.62
2023-01-18T22:33:19.997Z,93.67
2023-01-18T22:36:23.360Z,93.68
2023-01-18T22:39:25.746Z,93.79
2023-01-18T22:42:28.495Z,93.71
2023-01-18T22:45:30.958Z,93.45
2023-01-18T22:48:35.949Z,93.62
2023-01-18T22:51:38.405Z,93.60
2023-01-18T22:54:42.552Z,93.02
2023-01-18T22:57:44.985Z,93.31
2023-01-18T23:00:49.117Z,93.67
2023-01-18T23:03:53.350Z,93.58
2023-01-18T23:07:00.865Z,93.22
2023-01-18T23:10:03.538Z,93.30
2023-01-18T23:13:06.257Z,93.17
2023-01-18T23:16:31.904Z,93.51
2023-01-18T23:19:34.782Z,93.58
2023-01-18T23:22:37.564Z,93.66
2023-01-18T23:25:40.229Z,93.78
2023-01-18T23:28:42.784Z,94.03
2023-01-18T23:31:46.841Z,94.02
2023-01-18T23:34:49.334Z,94.26
2023-01-18T23:37:51.958Z,94.34
2023-01-18T23:41:16.519Z,94.67
2023-01-18T23:44:37.850Z,94.71
2023-01-18T23:47:59.444Z,95.03
2023-01-18T23:51:22.049Z,94.94
2023-01-18T23:54:24.538Z,95.01
2023-01-18T23:57:29.396Z,95.07
